sensor_id;sensor_type;location;lat;lon;timestamp;P1;durP1;ratioP1;P2;durP2;ratioP2
30000;SDS011;16845;48.670;9.000;2023-10-19T00:00:57;15.52;;;11.57;;
30000;SDS011;16845;48.670;9.000;2023-10-19T00:03:24;13.43;;;10.25;;
30000;SDS011;16845;48.670;9.000;2023-10-19T00:05:51;17.73;;;9.70;;
30000;SDS011;16845;48.670;9.000;2023-10-19T00:08:19;13.40;;;9.73;;
30000;SDS011;16845;48.670;9.000;2023-10-19T00:10:46;11.32;;;9.40;;
30000;SDS011;16845;48.670;9.000;2023-10-19T00:13:14;13.07;;;10.30;;
30000;SDS011;16845;48.670;9.000;2023-10-19T00:15:41;11.50;;;9.35;;
30000;SDS011;16845;48.670;9.000;2023-10-19T00:18:09;13.52;;;9.73;;
30000;SDS011;16845;48.670;9.000;2023-10-19T00:20:35;19.88;;;9.85;;
30000;SDS011;16845;48.670;9.000;2023-10-19T00:23:02;13.93;;;9.82;;
30000;SDS011;16845;48.670;9.000;2023-10-19T00:25:31;14.90;;;10.05;;
30000;SDS011;16845;48.670;9.000;2023-10-19T00:27:57;12.77;;;9.93;;
30000;SDS011;16845;48.670;9.000;2023-10-19T00:30:24;14.43;;;10.50;;
30000;SDS011;16845;48.670;9.000;2023-10-19T00:32:50;13.90;;;11.30;;
30000;SDS011;16845;48.670;9.000;2023-10-19T00:35:17;13.18;;;10.57;;
30000;SDS011;16845;48.670;9.000;2023-10-19T00:37:44;14.90;;;9.57;;
30000;SDS011;16845;48.670;9.000;2023-10-19T00:40:11;15.05;;;9.73;;
30000;SDS011;16845;48.670;9.000;2023-10-19T00:42:39;12.50;;;9.77;;
30000;SDS011;16845;48.670;9.000;2023-10-19T00:45:06;16.13;;;9.35;;
30000;SDS011;16845;48.670;9.000;2023-10-19T00:49:59;17.80;;;9.15;;
30000;SDS011;16845;48.670;9.000;2023-10-19T00:52:26;20.98;;;10.50;;
30000;SDS011;16845;48.670;9.000;2023-10-19T00:54:52;11.95;;;8.73;;
30000;SDS011;16845;48.670;9.000;2023-10-19T00:57:19;16.10;;;9.57;;
30000;SDS011;16845;48.670;9.000;2023-10-19T00:59:47;11.15;;;9.10;;
30000;SDS011;16845;48.670;9.000;2023-10-19T01:02:14;16.60;;;8.77;;
30000;SDS011;16845;48.670;9.000;2023-10-19T01:04:41;15.23;;;9.73;;
30000;SDS011;16845;48.670;9.000;2023-10-19T01:07:08;14.38;;;8.80;;
30000;SDS011;16845;48.670;9.000;2023-10-19T01:09:35;14.40;;;9.65;;
30000;SDS011;16845;48.670;9.000;2023-10-19T01:12:02;13.07;;;8.90;;
30000;SDS011;16845;48.670;9.000;2023-10-19T01:14:28;15.00;;;9.17;;
30000;SDS011;16845;48.670;9.000;2023-10-19T01:16:56;16.75;;;8.73;;
30000;SDS011;16845;48.670;9.000;2023-10-19T01:19:23;12.77;;;8.75;;
30000;SDS011;16845;48.670;9.000;2023-10-19T01:21:50;10.43;;;7.97;;
30000;SDS011;16845;48.670;9.000;2023-10-19T01:24:18;13.45;;;8.52;;
30000;SDS011;16845;48.670;9.000;2023-10-19T01:26:45;14.85;;;8.80;;
30000;SDS011;16845;48.670;9.000;2023-10-19T01:29:11;13.57;;;8.63;;
30000;SDS011;16845;48.670;9.000;2023-10-19T01:31:38;11.50;;;8.30;;
30000;SDS011;16845;48.670;9.000;2023-10-19T01:34:05;14.65;;;8.60;;
30000;SDS011;16845;48.670;9.000;2023-10-19T01:36:32;9.33;;;7.67;;
30000;SDS011;16845;48.670;9.000;2023-10-19T01:38:58;17.95;;;7.85;;
30000;SDS011;16845;48.670;9.000;2023-10-19T01:41:27;10.88;;;7.45;;
30000;SDS011;16845;48.670;9.000;2023-10-19T01:43:53;13.55;;;7.60;;
30000;SDS011;16845;48.670;9.000;2023-10-19T01:46:21;15.52;;;9.18;;
30000;SDS011;16845;48.670;9.000;2023-10-19T01:48:49;12.23;;;7.20;;
30000;SDS011;16845;48.670;9.000;2023-10-19T01:51:16;9.43;;;7.55;;
30000;SDS011;16845;48.670;9.000;2023-10-19T01:53:43;10.93;;;7.10;;
30000;SDS011;16845;48.670;9.000;2023-10-19T01:56:09;14.60;;;6.30;;
30000;SDS011;16845;48.670;9.000;2023-10-19T01:58:38;13.57;;;7.78;;
30000;SDS011;16845;48.670;9.000;2023-10-19T02:01:05;8.88;;;7.15;;
30000;SDS011;16845;48.670;9.000;2023-10-19T02:03:32;12.02;;;7.15;;
30000;SDS011;16845;48.670;9.000;2023-10-19T02:05:59;10.30;;;6.32;;
30000;SDS011;16845;48.670;9.000;2023-10-19T02:08:26;16.00;;;7.28;;
30000;SDS011;16845;48.670;9.000;2023-10-19T02:10:53;12.60;;;7.40;;
30000;SDS011;16845;48.670;9.000;2023-10-19T02:13:20;25.27;;;7.75;;
30000;SDS011;16845;48.670;9.000;2023-10-19T02:15:48;11.02;;;6.85;;
30000;SDS011;16845;48.670;9.000;2023-10-19T02:18:15;10.98;;;6.35;;
30000;SDS011;16845;48.670;9.000;2023-10-19T02:20:41;14.40;;;6.68;;
30000;SDS011;16845;48.670;9.000;2023-10-19T02:23:08;8.90;;;6.63;;
30000;SDS011;16845;48.670;9.000;2023-10-19T02:25:34;10.02;;;6.93;;
30000;SDS011;16845;48.670;9.000;2023-10-19T02:28:01;11.03;;;7.07;;
30000;SDS011;16845;48.670;9.000;2023-10-19T02:30:28;13.10;;;7.50;;
30000;SDS011;16845;48.670;9.000;2023-10-19T02:32:56;8.63;;;6.67;;
30000;SDS011;16845;48.670;9.000;2023-10-19T02:35:23;10.68;;;8.20;;
30000;SDS011;16845;48.670;9.000;2023-10-19T02:37:49;13.95;;;8.18;;
30000;SDS011;16845;48.670;9.000;2023-10-19T02:40:16;17.35;;;9.18;;
30000;SDS011;16845;48.670;9.000;2023-10-19T02:42:42;11.97;;;9.63;;
30000;SDS011;16845;48.670;9.000;2023-10-19T02:45:09;13.55;;;8.77;;
30000;SDS011;16845;48.670;9.000;2023-10-19T02:50:05;12.95;;;8.25;;
30000;SDS011;16845;48.670;9.000;2023-10-19T02:52:32;15.10;;;8.70;;
30000;SDS011;16845;48.670;9.000;2023-10-19T02:54:59;14.63;;;9.38;;
30000;SDS011;16845;48.670;9.000;2023-10-19T02:57:25;17.20;;;9.45;;
30000;SDS011;16845;48.670;9.000;2023-10-19T02:59:52;10.70;;;8.67;;
30000;SDS011;16845;48.670;9.000;2023-10-19T03:02:18;12.63;;;8.50;;
30000;SDS011;16845;48.670;9.000;2023-10-19T03:04:45;17.58;;;8.68;;
30000;SDS011;16845;48.670;9.000;2023-10-19T03:07:13;18.63;;;9.85;;
30000;SDS011;16845;48.670;9.000;2023-10-19T03:09:40;18.60;;;8.82;;
30000;SDS011;16845;48.670;9.000;2023-10-19T03:12:06;13.70;;;8.43;;
30000;SDS011;16845;48.670;9.000;2023-10-19T03:14:33;15.68;;;8.93;;
30000;SDS011;16845;48.670;9.000;2023-10-19T03:16:59;17.98;;;9.45;;
30000;SDS011;16845;48.670;9.000;2023-10-19T03:19:27;14.88;;;8.20;;
30000;SDS011;16845;48.670;9.000;2023-10-19T03:21:54;12.82;;;9.45;;
30000;SDS011;16845;48.670;9.000;2023-10-19T03:24:23;18.58;;;9.05;;
30000;SDS011;16845;48.670;9.000;2023-10-19T03:26:50;14.88;;;9.25;;
30000;SDS011;16845;48.670;9.000;2023-10-19T03:29:17;13.30;;;8.40;;
30000;SDS011;16845;48.670;9.000;2023-10-19T03:31:43;15.07;;;8.95;;
30000;SDS011;16845;48.670;9.000;2023-10-19T03:34:10;16.25;;;9.18;;
30000;SDS011;16845;48.670;9.000;2023-10-19T03:36:36;13.10;;;9.55;;
30000;SDS011;16845;48.670;9.000;2023-10-19T03:39:03;13.90;;;9.37;;
30000;SDS011;16845;48.670;9.000;2023-10-19T03:41:31;11.00;;;9.10;;
30000;SDS011;16845;48.670;9.000;2023-10-19T03:43:57;21.30;;;8.77;;
30000;SDS011;16845;48.670;9.000;2023-10-19T03:46:24;15.40;;;8.77;;
30000;SDS011;16845;48.670;9.000;2023-10-19T03:48:51;18.20;;;8.17;;
30000;SDS011;16845;48.670;9.000;2023-10-19T03:51:17;22.30;;;9.07;;
30000;SDS011;16845;48.670;9.000;2023-10-19T03:53:44;15.93;;;7.70;;
30000;SDS011;16845;48.670;9.000;2023-10-19T03:56:10;11.70;;;8.10;;
30000;SDS011;16845;48.670;9.000;2023-10-19T03:58:38;18.02;;;9.13;;
30000;SDS011;16845;48.670;9.000;2023-10-19T04:01:05;18.77;;;9.32;;
30000;SDS011;16845;48.670;9.000;2023-10-19T04:03:31;19.63;;;9.35;;
30000;SDS011;16845;48.670;9.000;2023-10-19T04:05:58;16.27;;;8.63;;
30000;SDS011;16845;48.670;9.000;2023-10-19T04:08:25;13.63;;;8.17;;
30000;SDS011;16845;48.670;9.000;2023-10-19T04:10:51;12.98;;;8.45;;
30000;SDS011;16845;48.670;9.000;2023-10-19T04:13:18;14.10;;;8.40;;
30000;SDS011;16845;48.670;9.000;2023-10-19T04:15:45;13.38;;;8.57;;
30000;SDS011;16845;48.670;9.000;2023-10-19T04:18:12;14.35;;;7.35;;
30000;SDS011;16845;48.670;9.000;2023-10-19T04:20:39;15.20;;;8.85;;
30000;SDS011;16845;48.670;9.000;2023-10-19T04:23:05;19.67;;;7.60;;
30000;SDS011;16845;48.670;9.000;2023-10-19T04:25:32;12.93;;;8.07;;
30000;SDS011;16845;48.670;9.000;2023-10-19T04:27:59;16.43;;;8.13;;
30000;SDS011;16845;48.670;9.000;2023-10-19T04:30:25;12.27;;;7.55;;
30000;SDS011;16845;48.670;9.000;2023-10-19T04:32:53;11.80;;;7.63;;
30000;SDS011;16845;48.670;9.000;2023-10-19T04:35:20;13.20;;;7.45;;
30000;SDS011;16845;48.670;9.000;2023-10-19T04:37:46;12.32;;;6.90;;
30000;SDS011;16845;48.670;9.000;2023-10-19T04:40:13;17.23;;;7.45;;
30000;SDS011;16845;48.670;9.000;2023-10-19T04:42:40;9.57;;;7.40;;
30000;SDS011;16845;48.670;9.000;2023-10-19T04:45:06;11.20;;;6.55;;
30000;SDS011;16845;48.670;9.000;2023-10-19T04:47:33;10.93;;;7.30;;
30000;SDS011;16845;48.670;9.000;2023-10-19T04:50:01;9.35;;;6.50;;
30000;SDS011;16845;48.670;9.000;2023-10-19T04:52:28;13.07;;;7.55;;
30000;SDS011;16845;48.670;9.000;2023-10-19T04:54:54;10.88;;;6.72;;
30000;SDS011;16845;48.670;9.000;2023-10-19T04:57:21;11.02;;;7.32;;
30000;SDS011;16845;48.670;9.000;2023-10-19T04:59:48;9.25;;;6.93;;
30000;SDS011;16845;48.670;9.000;2023-10-19T05:02:14;9.53;;;7.53;;
30000;SDS011;16845;48.670;9.000;2023-10-19T05:04:41;10.90;;;6.57;;
30000;SDS011;16845;48.670;9.000;2023-10-19T05:07:10;16.70;;;7.65;;
30000;SDS011;16845;48.670;9.000;2023-10-19T05:09:36;11.27;;;7.30;;
30000;SDS011;16845;48.670;9.000;2023-10-19T05:12:03;8.75;;;6.45;;
30000;SDS011;16845;48.670;9.000;2023-10-19T05:14:30;13.57;;;7.75;;
30000;SDS011;16845;48.670;9.000;2023-10-19T05:16:57;10.32;;;6.15;;
30000;SDS011;16845;48.670;9.000;2023-10-19T05:19:23;8.53;;;5.60;;
30000;SDS011;16845;48.670;9.000;2023-10-19T05:21:50;9.87;;;6.57;;
30000;SDS011;16845;48.670;9.000;2023-10-19T05:24:18;13.07;;;7.53;;
30000;SDS011;16845;48.670;9.000;2023-10-19T05:26:44;11.57;;;7.00;;
30000;SDS011;16845;48.670;9.000;2023-10-19T05:29:11;14.82;;;7.05;;
30000;SDS011;16845;48.670;9.000;2023-10-19T05:31:37;10.05;;;6.88;;
30000;SDS011;16845;48.670;9.000;2023-10-19T05:34:04;10.75;;;6.70;;
30000;SDS011;16845;48.670;9.000;2023-10-19T05:36:30;12.57;;;7.15;;
30000;SDS011;16845;48.670;9.000;2023-10-19T05:38:57;14.05;;;6.55;;
30000;SDS011;16845;48.670;9.000;2023-10-19T05:41:25;12.93;;;6.17;;
30000;SDS011;16845;48.670;9.000;2023-10-19T05:43:51;8.57;;;5.65;;
30000;SDS011;16845;48.670;9.000;2023-10-19T05:46:18;9.53;;;6.07;;
30000;SDS011;16845;48.670;9.000;2023-10-19T05:48:45;11.70;;;6.50;;
30000;SDS011;16845;48.670;9.000;2023-10-19T05:51:11;8.00;;;6.15;;
30000;SDS011;16845;48.670;9.000;2023-10-19T05:53:38;12.50;;;6.63;;
30000;SDS011;16845;48.670;9.000;2023-10-19T05:56:04;10.02;;;6.32;;
30000;SDS011;16845;48.670;9.000;2023-10-19T05:58:32;9.70;;;6.95;;
30000;SDS011;16845;48.670;9.000;2023-10-19T06:00:59;16.63;;;6.43;;
30000;SDS011;16845;48.670;9.000;2023-10-19T06:03:25;12.02;;;6.10;;
30000;SDS011;16845;48.670;9.000;2023-10-19T06:05:52;8.60;;;4.90;;
30000;SDS011;16845;48.670;9.000;2023-10-19T06:08:18;9.43;;;6.35;;
30000;SDS011;16845;48.670;9.000;2023-10-19T06:10:48;12.77;;;6.32;;
30000;SDS011;16845;48.670;9.000;2023-10-19T06:13:17;7.20;;;5.75;;
30000;SDS011;16845;48.670;9.000;2023-10-19T06:15:45;16.77;;;6.70;;
30000;SDS011;16845;48.670;9.000;2023-10-19T06:18:11;10.77;;;7.00;;
30000;SDS011;16845;48.670;9.000;2023-10-19T06:20:38;10.05;;;6.00;;
30000;SDS011;16845;48.670;9.000;2023-10-19T06:23:09;9.10;;;5.30;;
30000;SDS011;16845;48.670;9.000;2023-10-19T06:25:35;9.02;;;5.30;;
30000;SDS011;16845;48.670;9.000;2023-10-19T06:28:02;8.35;;;4.80;;
30000;SDS011;16845;48.670;9.000;2023-10-19T06:30:29;6.00;;;5.32;;
30000;SDS011;16845;48.670;9.000;2023-10-19T06:32:57;13.30;;;5.53;;
30000;SDS011;16845;48.670;9.000;2023-10-19T06:35:26;8.93;;;5.50;;
30000;SDS011;16845;48.670;9.000;2023-10-19T06:37:54;11.35;;;6.13;;
30000;SDS011;16845;48.670;9.000;2023-10-19T06:40:21;9.65;;;5.78;;
30000;SDS011;16845;48.670;9.000;2023-10-19T06:42:47;10.05;;;6.60;;
30000;SDS011;16845;48.670;9.000;2023-10-19T06:45:15;8.75;;;6.45;;
30000;SDS011;16845;48.670;9.000;2023-10-19T06:47:43;13.43;;;6.63;;
30000;SDS011;16845;48.670;9.000;2023-10-19T06:50:12;15.23;;;6.90;;
30000;SDS011;16845;48.670;9.000;2023-10-19T06:52:39;11.57;;;8.10;;
30000;SDS011;16845;48.670;9.000;2023-10-19T06:55:06;7.57;;;5.53;;
30000;SDS011;16845;48.670;9.000;2023-10-19T06:57:34;8.73;;;5.38;;
30000;SDS011;16845;48.670;9.000;2023-10-19T07:00:00;8.48;;;5.40;;
30000;SDS011;16845;48.670;9.000;2023-10-19T07:02:27;10.23;;;5.30;;
30000;SDS011;16845;48.670;9.000;2023-10-19T07:04:54;6.53;;;5.07;;
30000;SDS011;16845;48.670;9.000;2023-10-19T07:07:22;9.32;;;5.60;;
30000;SDS011;16845;48.670;9.000;2023-10-19T07:09:48;8.15;;;5.82;;
30000;SDS011;16845;48.670;9.000;2023-10-19T07:12:16;11.57;;;6.05;;
30000;SDS011;16845;48.670;9.000;2023-10-19T07:14:45;7.20;;;5.53;;
30000;SDS011;16845;48.670;9.000;2023-10-19T07:17:11;8.32;;;5.63;;
30000;SDS011;16845;48.670;9.000;2023-10-19T07:19:41;6.82;;;5.43;;
30000;SDS011;16845;48.670;9.000;2023-10-19T07:22:08;9.50;;;4.88;;
30000;SDS011;16845;48.670;9.000;2023-10-19T07:24:36;9.80;;;5.93;;
30000;SDS011;16845;48.670;9.000;2023-10-19T07:27:02;10.85;;;6.05;;
30000;SDS011;16845;48.670;9.000;2023-10-19T07:29:29;7.75;;;5.07;;
30000;SDS011;16845;48.670;9.000;2023-10-19T07:31:56;9.18;;;6.15;;
30000;SDS011;16845;48.670;9.000;2023-10-19T07:34:22;13.20;;;5.83;;
30000;SDS011;16845;48.670;9.000;2023-10-19T07:36:49;9.45;;;4.78;;
30000;SDS011;16845;48.670;9.000;2023-10-19T07:39:15;8.00;;;5.20;;
30000;SDS011;16845;48.670;9.000;2023-10-19T07:41:43;5.95;;;5.20;;
30000;SDS011;16845;48.670;9.000;2023-10-19T07:44:09;6.13;;;4.75;;
30000;SDS011;16845;48.670;9.000;2023-10-19T07:46:36;9.75;;;5.15;;
30000;SDS011;16845;48.670;9.000;2023-10-19T07:49:03;7.90;;;4.45;;
30000;SDS011;16845;48.670;9.000;2023-10-19T07:51:29;8.80;;;5.25;;
30000;SDS011;16845;48.670;9.000;2023-10-19T07:53:56;5.22;;;4.10;;
30000;SDS011;16845;48.670;9.000;2023-10-19T07:56:22;8.45;;;5.40;;
30000;SDS011;16845;48.670;9.000;2023-10-19T07:58:50;6.95;;;4.75;;
30000;SDS011;16845;48.670;9.000;2023-10-19T08:03:20;7.55;;;5.07;;
30000;SDS011;16845;48.670;9.000;2023-10-19T08:05:46;8.10;;;4.75;;
30000;SDS011;16845;48.670;9.000;2023-10-19T08:08:13;7.82;;;4.88;;
30000;SDS011;16845;48.670;9.000;2023-10-19T08:10:39;6.78;;;5.95;;
30000;SDS011;16845;48.670;9.000;2023-10-19T08:13:06;6.95;;;5.00;;
30000;SDS011;16845;48.670;9.000;2023-10-19T08:15:33;5.22;;;4.45;;
30000;SDS011;16845;48.670;9.000;2023-10-19T08:17:59;10.00;;;5.10;;
30000;SDS011;16845;48.670;9.000;2023-10-19T08:20:27;8.40;;;4.68;;
30000;SDS011;16845;48.670;9.000;2023-10-19T08:22:54;8.90;;;4.32;;
30000;SDS011;16845;48.670;9.000;2023-10-19T08:25:21;5.13;;;3.95;;
30000;SDS011;16845;48.670;9.000;2023-10-19T08:27:48;8.27;;;5.15;;
30000;SDS011;16845;48.670;9.000;2023-10-19T08:30:15;4.18;;;3.53;;
30000;SDS011;16845;48.670;9.000;2023-10-19T08:32:46;5.85;;;4.32;;
30000;SDS011;16845;48.670;9.000;2023-10-19T08:35:13;5.47;;;3.97;;
30000;SDS011;16845;48.670;9.000;2023-10-19T08:37:42;9.48;;;3.70;;
30000;SDS011;16845;48.670;9.000;2023-10-19T08:40:09;4.30;;;3.20;;
30000;SDS011;16845;48.670;9.000;2023-10-19T08:42:37;6.15;;;3.40;;
30000;SDS011;16845;48.670;9.000;2023-10-19T08:45:04;5.37;;;3.77;;
30000;SDS011;16845;48.670;9.000;2023-10-19T08:47:30;7.50;;;3.55;;
30000;SDS011;16845;48.670;9.000;2023-10-19T08:49:57;7.15;;;3.63;;
30000;SDS011;16845;48.670;9.000;2023-10-19T08:52:24;8.32;;;3.65;;
30000;SDS011;16845;48.670;9.000;2023-10-19T08:54:53;7.45;;;3.05;;
30000;SDS011;16845;48.670;9.000;2023-10-19T08:57:20;5.43;;;3.67;;
30000;SDS011;16845;48.670;9.000;2023-10-19T08:59:46;4.10;;;3.17;;
30000;SDS011;16845;48.670;9.000;2023-10-19T09:02:13;7.25;;;3.17;;
30000;SDS011;16845;48.670;9.000;2023-10-19T09:04:41;5.75;;;3.00;;
30000;SDS011;16845;48.670;9.000;2023-10-19T09:07:08;5.15;;;2.95;;
30000;SDS011;16845;48.670;9.000;2023-10-19T09:09:35;6.07;;;3.05;;
30000;SDS011;16845;48.670;9.000;2023-10-19T09:12:03;4.90;;;2.47;;
30000;SDS011;16845;48.670;9.000;2023-10-19T09:14:31;6.05;;;3.00;;
30000;SDS011;16845;48.670;9.000;2023-10-19T09:16:59;4.07;;;2.53;;
30000;SDS011;16845;48.670;9.000;2023-10-19T09:19:35;5.32;;;2.58;;
30000;SDS011;16845;48.670;9.000;2023-10-19T09:22:03;4.85;;;2.75;;
30000;SDS011;16845;48.670;9.000;2023-10-19T09:24:30;3.15;;;2.25;;
30000;SDS011;16845;48.670;9.000;2023-10-19T09:26:58;6.30;;;3.13;;
30000;SDS011;16845;48.670;9.000;2023-10-19T09:29:26;7.72;;;2.72;;
30000;SDS011;16845;48.670;9.000;2023-10-19T09:31:52;4.13;;;2.60;;
30000;SDS011;16845;48.670;9.000;2023-10-19T09:34:21;7.63;;;2.92;;
30000;SDS011;16845;48.670;9.000;2023-10-19T09:39:15;3.10;;;2.58;;
30000;SDS011;16845;48.670;9.000;2023-10-19T09:41:41;5.53;;;2.72;;
30000;SDS011;16845;48.670;9.000;2023-10-19T09:44:08;4.90;;;3.33;;
30000;SDS011;16845;48.670;9.000;2023-10-19T09:46:37;6.25;;;3.17;;
30000;SDS011;16845;48.670;9.000;2023-10-19T09:49:05;4.82;;;3.25;;
30000;SDS011;16845;48.670;9.000;2023-10-19T09:51:32;6.00;;;3.33;;
30000;SDS011;16845;48.670;9.000;2023-10-19T09:53:59;6.00;;;3.15;;
30000;SDS011;16845;48.670;9.000;2023-10-19T09:56:32;3.75;;;2.80;;
30000;SDS011;16845;48.670;9.000;2023-10-19T09:59:05;7.28;;;3.53;;
30000;SDS011;16845;48.670;9.000;2023-10-19T10:04:32;5.13;;;3.25;;
30000;SDS011;16845;48.670;9.000;2023-10-19T10:06:59;6.18;;;4.10;;
30000;SDS011;16845;48.670;9.000;2023-10-19T10:09:26;3.93;;;3.07;;
30000;SDS011;16845;48.670;9.000;2023-10-19T10:11:53;7.67;;;3.07;;
30000;SDS011;16845;48.670;9.000;2023-10-19T10:14:20;4.32;;;2.58;;
30000;SDS011;16845;48.670;9.000;2023-10-19T10:16:51;3.15;;;2.58;;
30000;SDS011;16845;48.670;9.000;2023-10-19T10:19:27;3.33;;;2.67;;
30000;SDS011;16845;48.670;9.000;2023-10-19T10:22:03;7.53;;;2.92;;
30000;SDS011;16845;48.670;9.000;2023-10-19T10:24:30;5.05;;;3.08;;
30000;SDS011;16845;48.670;9.000;2023-10-19T10:26:58;5.00;;;3.10;;
30000;SDS011;16845;48.670;9.000;2023-10-19T10:29:25;3.55;;;2.80;;
30000;SDS011;16845;48.670;9.000;2023-10-19T10:31:51;5.50;;;2.85;;
30000;SDS011;16845;48.670;9.000;2023-10-19T10:37:11;5.50;;;3.08;;
30000;SDS011;16845;48.670;9.000;2023-10-19T10:39:38;7.38;;;3.33;;
30000;SDS011;16845;48.670;9.000;2023-10-19T10:44:36;3.30;;;2.67;;
30000;SDS011;16845;48.670;9.000;2023-10-19T10:47:07;4.18;;;2.97;;
30000;SDS011;16845;48.670;9.000;2023-10-19T10:49:35;4.53;;;2.78;;
30000;SDS011;16845;48.670;9.000;2023-10-19T10:52:22;7.97;;;3.10;;
30000;SDS011;16845;48.670;9.000;2023-10-19T10:54:49;8.43;;;3.30;;
30000;SDS011;16845;48.670;9.000;2023-10-19T10:57:16;5.63;;;3.17;;
30000;SDS011;16845;48.670;9.000;2023-10-19T10:59:42;4.65;;;3.25;;
30000;SDS011;16845;48.670;9.000;2023-10-19T11:02:16;5.38;;;2.92;;
30000;SDS011;16845;48.670;9.000;2023-10-19T11:04:43;4.10;;;3.40;;
30000;SDS011;16845;48.670;9.000;2023-10-19T11:07:16;5.13;;;3.25;;
30000;SDS011;16845;48.670;9.000;2023-10-19T11:09:44;4.88;;;3.33;;
30000;SDS011;16845;48.670;9.000;2023-10-19T11:12:11;6.40;;;4.30;;
30000;SDS011;16845;48.670;9.000;2023-10-19T11:14:38;9.70;;;3.60;;
30000;SDS011;16845;48.670;9.000;2023-10-19T11:17:17;8.88;;;4.00;;
30000;SDS011;16845;48.670;9.000;2023-10-19T11:19:44;6.78;;;3.78;;
30000;SDS011;16845;48.670;9.000;2023-10-19T11:22:12;4.93;;;3.60;;
30000;SDS011;16845;48.670;9.000;2023-10-19T11:24:38;5.47;;;3.95;;
30000;SDS011;16845;48.670;9.000;2023-10-19T11:27:05;12.00;;;4.30;;
30000;SDS011;16845;48.670;9.000;2023-10-19T11:29:31;6.57;;;3.57;;
30000;SDS011;16845;48.670;9.000;2023-10-19T11:31:58;6.63;;;3.35;;
30000;SDS011;16845;48.670;9.000;2023-10-19T11:34:25;5.68;;;3.45;;
30000;SDS011;16845;48.670;9.000;2023-10-19T11:36:52;5.38;;;3.40;;
30000;SDS011;16845;48.670;9.000;2023-10-19T11:39:20;5.60;;;4.05;;
30000;SDS011;16845;48.670;9.000;2023-10-19T11:41:47;8.27;;;3.63;;
30000;SDS011;16845;48.670;9.000;2023-10-19T11:44:13;6.75;;;4.72;;
30000;SDS011;16845;48.670;9.000;2023-10-19T11:46:40;4.90;;;4.33;;
30000;SDS011;16845;48.670;9.000;2023-10-19T11:51:56;7.60;;;4.60;;
30000;SDS011;16845;48.670;9.000;2023-10-19T11:54:24;9.43;;;4.55;;
30000;SDS011;16845;48.670;9.000;2023-10-19T11:56:51;5.30;;;4.43;;
30000;SDS011;16845;48.670;9.000;2023-10-19T11:59:17;7.43;;;4.93;;
30000;SDS011;16845;48.670;9.000;2023-10-19T12:01:44;6.78;;;4.40;;
30000;SDS011;16845;48.670;9.000;2023-10-19T12:04:11;9.73;;;3.90;;
30000;SDS011;16845;48.670;9.000;2023-10-19T12:06:37;5.77;;;3.90;;
30000;SDS011;16845;48.670;9.000;2023-10-19T12:09:04;8.02;;;3.60;;
30000;SDS011;16845;48.670;9.000;2023-10-19T12:11:32;7.13;;;4.47;;
30000;SDS011;16845;48.670;9.000;2023-10-19T12:13:58;7.05;;;3.97;;
30000;SDS011;16845;48.670;9.000;2023-10-19T12:16:25;5.80;;;4.03;;
30000;SDS011;16845;48.670;9.000;2023-10-19T12:18:51;5.63;;;3.90;;
30000;SDS011;16845;48.670;9.000;2023-10-19T12:21:18;7.53;;;4.90;;
30000;SDS011;16845;48.670;9.000;2023-10-19T12:23:45;6.32;;;4.10;;
30000;SDS011;16845;48.670;9.000;2023-10-19T12:26:12;6.85;;;4.85;;
30000;SDS011;16845;48.670;9.000;2023-10-19T12:28:40;7.55;;;5.13;;
30000;SDS011;16845;48.670;9.000;2023-10-19T12:31:07;12.52;;;4.97;;
30000;SDS011;16845;48.670;9.000;2023-10-19T12:33:34;7.35;;;4.60;;
30000;SDS011;16845;48.670;9.000;2023-10-19T12:36:01;5.03;;;4.53;;
30000;SDS011;16845;48.670;9.000;2023-10-19T12:38:28;7.25;;;5.22;;
30000;SDS011;16845;48.670;9.000;2023-10-19T12:40:54;7.13;;;4.15;;
30000;SDS011;16845;48.670;9.000;2023-10-19T12:43:21;11.73;;;4.47;;
30000;SDS011;16845;48.670;9.000;2023-10-19T12:45:49;4.55;;;3.58;;
30000;SDS011;16845;48.670;9.000;2023-10-19T12:48:16;7.47;;;3.85;;
30000;SDS011;16845;48.670;9.000;2023-10-19T12:50:43;4.45;;;3.42;;
30000;SDS011;16845;48.670;9.000;2023-10-19T12:53:09;6.07;;;3.63;;
30000;SDS011;16845;48.670;9.000;2023-10-19T12:55:36;6.53;;;4.20;;
30000;SDS011;16845;48.670;9.000;2023-10-19T12:58:03;5.00;;;3.90;;
30000;SDS011;16845;48.670;9.000;2023-10-19T13:00:29;5.80;;;4.18;;
30000;SDS011;16845;48.670;9.000;2023-10-19T13:03:00;9.23;;;4.68;;
30000;SDS011;16845;48.670;9.000;2023-10-19T13:05:27;7.43;;;4.18;;
30000;SDS011;16845;48.670;9.000;2023-10-19T13:07:54;8.80;;;4.97;;
30000;SDS011;16845;48.670;9.000;2023-10-19T13:10:20;11.50;;;5.45;;
30000;SDS011;16845;48.670;9.000;2023-10-19T13:12:47;9.10;;;4.50;;
30000;SDS011;16845;48.670;9.000;2023-10-19T13:15:13;6.68;;;4.70;;
30000;SDS011;16845;48.670;9.000;2023-10-19T13:17:40;6.70;;;4.82;;
30000;SDS011;16845;48.670;9.000;2023-10-19T13:20:09;6.00;;;3.70;;
30000;SDS011;16845;48.670;9.000;2023-10-19T13:22:36;6.93;;;3.70;;
30000;SDS011;16845;48.670;9.000;2023-10-19T13:25:02;6.87;;;3.57;;
30000;SDS011;16845;48.670;9.000;2023-10-19T13:27:29;8.90;;;4.15;;
30000;SDS011;16845;48.670;9.000;2023-10-19T13:29:56;4.32;;;3.55;;
30000;SDS011;16845;48.670;9.000;2023-10-19T13:32:22;7.10;;;3.67;;
30000;SDS011;16845;48.670;9.000;2023-10-19T13:34:49;5.47;;;3.33;;
30000;SDS011;16845;48.670;9.000;2023-10-19T13:37:17;5.05;;;2.95;;
30000;SDS011;16845;48.670;9.000;2023-10-19T13:39:43;6.55;;;4.15;;
30000;SDS011;16845;48.670;9.000;2023-10-19T13:42:10;4.93;;;2.30;;
30000;SDS011;16845;48.670;9.000;2023-10-19T13:44:36;3.70;;;2.10;;
30000;SDS011;16845;48.670;9.000;2023-10-19T13:47:03;2.47;;;2.27;;
30000;SDS011;16845;48.670;9.000;2023-10-19T13:49:30;3.73;;;1.93;;
30000;SDS011;16845;48.670;9.000;2023-10-19T13:51:59;4.85;;;2.40;;
30000;SDS011;16845;48.670;9.000;2023-10-19T13:54:27;5.82;;;2.13;;
30000;SDS011;16845;48.670;9.000;2023-10-19T13:56:53;2.40;;;1.92;;
30000;SDS011;16845;48.670;9.000;2023-10-19T13:59:20;5.00;;;2.70;;
30000;SDS011;16845;48.670;9.000;2023-10-19T14:01:46;7.95;;;2.70;;
30000;SDS011;16845;48.670;9.000;2023-10-19T14:04:13;2.30;;;1.93;;
30000;SDS011;16845;48.670;9.000;2023-10-19T14:06:40;2.03;;;1.50;;
30000;SDS011;16845;48.670;9.000;2023-10-19T14:09:06;1.88;;;1.70;;
30000;SDS011;16845;48.670;9.000;2023-10-19T14:11:34;4.70;;;2.13;;
30000;SDS011;16845;48.670;9.000;2023-10-19T14:14:00;3.58;;;2.00;;
30000;SDS011;16845;48.670;9.000;2023-10-19T14:16:27;2.53;;;2.05;;
30000;SDS011;16845;48.670;9.000;2023-10-19T14:18:53;3.58;;;2.08;;
30000;SDS011;16845;48.670;9.000;2023-10-19T14:21:20;2.53;;;2.13;;
30000;SDS011;16845;48.670;9.000;2023-10-19T14:23:46;3.63;;;2.10;;
30000;SDS011;16845;48.670;9.000;2023-10-19T14:26:13;3.75;;;2.30;;
30000;SDS011;16845;48.670;9.000;2023-10-19T14:28:41;4.88;;;2.22;;
30000;SDS011;16845;48.670;9.000;2023-10-19T14:31:08;5.28;;;2.75;;
30000;SDS011;16845;48.670;9.000;2023-10-19T14:33:35;7.90;;;2.78;;
30000;SDS011;16845;48.670;9.000;2023-10-19T14:36:02;5.05;;;2.40;;
30000;SDS011;16845;48.670;9.000;2023-10-19T14:38:30;6.60;;;3.78;;
30000;SDS011;16845;48.670;9.000;2023-10-19T14:40:56;5.88;;;4.40;;
30000;SDS011;16845;48.670;9.000;2023-10-19T14:43:23;8.00;;;4.20;;
30000;SDS011;16845;48.670;9.000;2023-10-19T14:45:51;6.70;;;4.32;;
30000;SDS011;16845;48.670;9.000;2023-10-19T14:48:17;5.10;;;4.32;;
30000;SDS011;16845;48.670;9.000;2023-10-19T14:50:44;7.63;;;5.10;;
30000;SDS011;16845;48.670;9.000;2023-10-19T14:53:11;10.15;;;5.22;;
30000;SDS011;16845;48.670;9.000;2023-10-19T14:55:37;4.80;;;4.40;;
30000;SDS011;16845;48.670;9.000;2023-10-19T14:58:04;8.30;;;4.95;;
30000;SDS011;16845;48.670;9.000;2023-10-19T15:00:31;12.00;;;5.05;;